メインページ
METAR-TAF:

METAR-TAF

空港 :

平壌, 朝鮮民主主義人民共和国

平壌国際空港

緯度: 39-02N, 経度: 125-47E, 海抜: 36m

METAR: 見つかりません

時間: 14:17 (05:47 UTC)

予報

当レポートは47分前の05:00(UTC)に作成
予報は19日の 06時(UTC)から 20日の 06時(UTC)まで有効
南/南東の風 8kt
視程10km以上
高度2000ftの千切れ雲あり
19日の 06時(UTC)から 19日の 10時(UTC)まで一時的に
視程: 4000m
弱いにわか雨
19日の 22時(UTC)から 20日の 06時(UTC)まで一時的に
変向風 14kt
視程: 3000m
高度1300ftの千切れ雲あり
高度2300ftの雲は散在している, 積乱雲.
激しい雷雨, 小雨

TAF: ZKPY 190500Z 1906/2006 15004MPS 9999 BKN020 TEMPO 1906/1910 4000 -SHRA TEMPO 1922/2006 VRB07MPS 3000 -TSRA BKN013 SCT023CB

4,000以上の空港の気象観測と天気予報(METAR報とTAF報)

利用可能な観測所は地図上に黄色い丸と赤い丸で示す。

丸の上にカーソルを重ねると観測所名を参照できる。

次にクリックすると気象観測と天気予報を参照できる。

マップの切り替え:黒色「×」印の緑ボタンをクリックして拡大、「-」印の緑ボタンをクリックして縮小、緑色の三角印をクリックして隣りの地図に切り替え


METAR-TAF: